sensor_id;sensor_type;location;lat;lon;timestamp;P1;durP1;ratioP1;P2;durP2;ratioP2
43803;SDS011;29430;52.924;-2.388;2023-08-01T00:02:11;4.68;;;0.57;;
43803;SDS011;29430;52.924;-2.388;2023-08-01T00:07:03;3.33;;;0.60;;
43803;SDS011;29430;52.924;-2.388;2023-08-01T00:11:55;2.92;;;0.50;;
43803;SDS011;29430;52.924;-2.388;2023-08-01T00:16:47;5.97;;;0.60;;
43803;SDS011;29430;52.924;-2.388;2023-08-01T00:21:39;4.60;;;0.50;;
43803;SDS011;29430;52.924;-2.388;2023-08-01T00:26:34;5.78;;;0.45;;
43803;SDS011;29430;52.924;-2.388;2023-08-01T00:31:26;2.88;;;0.50;;
43803;SDS011;29430;52.924;-2.388;2023-08-01T00:36:18;6.78;;;0.70;;
43803;SDS011;29430;52.924;-2.388;2023-08-01T00:41:10;5.07;;;1.02;;
43803;SDS011;29430;52.924;-2.388;2023-08-01T00:46:03;6.25;;;0.68;;
43803;SDS011;29430;52.924;-2.388;2023-08-01T00:50:57;4.38;;;1.58;;
43803;SDS011;29430;52.924;-2.388;2023-08-01T00:55:51;2.40;;;0.47;;
43803;SDS011;29430;52.924;-2.388;2023-08-01T01:00:46;4.03;;;0.50;;
43803;SDS011;29430;52.924;-2.388;2023-08-01T01:05:41;4.50;;;0.40;;
43803;SDS011;29430;52.924;-2.388;2023-08-01T01:10:38;4.68;;;0.50;;
43803;SDS011;29430;52.924;-2.388;2023-08-01T01:15:30;4.28;;;0.57;;
43803;SDS011;29430;52.924;-2.388;2023-08-01T01:20:25;4.22;;;0.70;;
43803;SDS011;29430;52.924;-2.388;2023-08-01T01:25:16;7.00;;;0.70;;
43803;SDS011;29430;52.924;-2.388;2023-08-01T01:30:11;2.95;;;0.40;;
43803;SDS011;29430;52.924;-2.388;2023-08-01T01:35:03;4.93;;;0.68;;
43803;SDS011;29430;52.924;-2.388;2023-08-01T01:39:55;4.72;;;0.60;;
43803;SDS011;29430;52.924;-2.388;2023-08-01T01:44:47;4.43;;;0.50;;
43803;SDS011;29430;52.924;-2.388;2023-08-01T01:49:39;3.70;;;0.43;;
43803;SDS011;29430;52.924;-2.388;2023-08-01T01:54:30;3.08;;;0.60;;
43803;SDS011;29430;52.924;-2.388;2023-08-01T01:59:22;4.05;;;0.50;;
43803;SDS011;29430;52.924;-2.388;2023-08-01T02:04:14;2.75;;;0.50;;
43803;SDS011;29430;52.924;-2.388;2023-08-01T02:09:06;4.18;;;0.47;;
43803;SDS011;29430;52.924;-2.388;2023-08-01T02:13:58;3.85;;;0.60;;
43803;SDS011;29430;52.924;-2.388;2023-08-01T02:18:50;5.00;;;0.55;;
43803;SDS011;29430;52.924;-2.388;2023-08-01T02:23:42;4.00;;;0.45;;
43803;SDS011;29430;52.924;-2.388;2023-08-01T02:28:34;4.75;;;0.63;;
43803;SDS011;29430;52.924;-2.388;2023-08-01T02:33:26;3.47;;;0.60;;
43803;SDS011;29430;52.924;-2.388;2023-08-01T02:38:17;3.83;;;0.55;;
43803;SDS011;29430;52.924;-2.388;2023-08-01T02:43:09;5.28;;;0.40;;
43803;SDS011;29430;52.924;-2.388;2023-08-01T02:48:01;2.97;;;0.40;;
43803;SDS011;29430;52.924;-2.388;2023-08-01T02:52:53;3.08;;;0.40;;
43803;SDS011;29430;52.924;-2.388;2023-08-01T02:57:44;7.13;;;0.60;;
43803;SDS011;29430;52.924;-2.388;2023-08-01T03:02:37;4.28;;;0.40;;
43803;SDS011;29430;52.924;-2.388;2023-08-01T03:07:30;4.22;;;0.40;;
43803;SDS011;29430;52.924;-2.388;2023-08-01T03:12:22;4.03;;;0.40;;
43803;SDS011;29430;52.924;-2.388;2023-08-01T03:17:13;3.90;;;0.85;;
43803;SDS011;29430;52.924;-2.388;2023-08-01T03:22:05;5.40;;;0.47;;
43803;SDS011;29430;52.924;-2.388;2023-08-01T03:26:58;2.83;;;0.40;;
43803;SDS011;29430;52.924;-2.388;2023-08-01T03:31:50;5.75;;;0.50;;
43803;SDS011;29430;52.924;-2.388;2023-08-01T03:36:42;6.15;;;0.70;;
43803;SDS011;29430;52.924;-2.388;2023-08-01T03:41:34;5.22;;;0.52;;
43803;SDS011;29430;52.924;-2.388;2023-08-01T03:46:25;4.05;;;0.40;;
43803;SDS011;29430;52.924;-2.388;2023-08-01T03:51:17;4.28;;;0.93;;
43803;SDS011;29430;52.924;-2.388;2023-08-01T03:56:10;4.82;;;0.55;;
43803;SDS011;29430;52.924;-2.388;2023-08-01T04:01:02;4.10;;;0.47;;
43803;SDS011;29430;52.924;-2.388;2023-08-01T04:06:00;7.75;;;0.40;;
43803;SDS011;29430;52.924;-2.388;2023-08-01T04:10:52;2.83;;;0.40;;
43803;SDS011;29430;52.924;-2.388;2023-08-01T04:15:44;5.40;;;0.40;;
43803;SDS011;29430;52.924;-2.388;2023-08-01T04:20:36;4.13;;;0.32;;
43803;SDS011;29430;52.924;-2.388;2023-08-01T04:25:27;5.93;;;0.70;;
43803;SDS011;29430;52.924;-2.388;2023-08-01T04:30:19;3.42;;;0.40;;
43803;SDS011;29430;52.924;-2.388;2023-08-01T04:35:11;6.03;;;0.40;;
43803;SDS011;29430;52.924;-2.388;2023-08-01T04:40:03;1.95;;;0.30;;
43803;SDS011;29430;52.924;-2.388;2023-08-01T04:44:55;3.70;;;0.60;;
43803;SDS011;29430;52.924;-2.388;2023-08-01T04:49:47;4.80;;;0.50;;
43803;SDS011;29430;52.924;-2.388;2023-08-01T04:54:38;3.25;;;0.40;;
43803;SDS011;29430;52.924;-2.388;2023-08-01T04:59:30;4.53;;;0.60;;
43803;SDS011;29430;52.924;-2.388;2023-08-01T05:04:22;4.00;;;0.50;;
43803;SDS011;29430;52.924;-2.388;2023-08-01T05:09:14;7.53;;;0.50;;
43803;SDS011;29430;52.924;-2.388;2023-08-01T05:14:05;4.65;;;0.40;;
43803;SDS011;29430;52.924;-2.388;2023-08-01T05:18:57;4.32;;;0.50;;
43803;SDS011;29430;52.924;-2.388;2023-08-01T05:23:49;7.35;;;0.60;;
43803;SDS011;29430;52.924;-2.388;2023-08-01T05:28:41;5.22;;;0.60;;
43803;SDS011;29430;52.924;-2.388;2023-08-01T05:33:32;3.10;;;0.40;;
43803;SDS011;29430;52.924;-2.388;2023-08-01T05:38:24;3.38;;;0.40;;
43803;SDS011;29430;52.924;-2.388;2023-08-01T05:43:16;3.40;;;0.40;;
43803;SDS011;29430;52.924;-2.388;2023-08-01T05:48:08;4.65;;;0.50;;
43803;SDS011;29430;52.924;-2.388;2023-08-01T05:53:00;4.10;;;0.38;;
43803;SDS011;29430;52.924;-2.388;2023-08-01T05:57:51;6.10;;;0.40;;
43803;SDS011;29430;52.924;-2.388;2023-08-01T06:02:44;8.07;;;0.40;;
43803;SDS011;29430;52.924;-2.388;2023-08-01T06:07:36;5.78;;;0.38;;
43803;SDS011;29430;52.924;-2.388;2023-08-01T06:12:27;4.72;;;0.40;;
43803;SDS011;29430;52.924;-2.388;2023-08-01T06:17:20;3.17;;;0.32;;
43803;SDS011;29430;52.924;-2.388;2023-08-01T06:22:12;3.75;;;0.40;;
43803;SDS011;29430;52.924;-2.388;2023-08-01T06:27:03;2.85;;;0.50;;
43803;SDS011;29430;52.924;-2.388;2023-08-01T06:31:56;2.55;;;0.40;;
43803;SDS011;29430;52.924;-2.388;2023-08-01T06:36:48;2.47;;;0.22;;
43803;SDS011;29430;52.924;-2.388;2023-08-01T06:41:40;2.65;;;0.30;;
43803;SDS011;29430;52.924;-2.388;2023-08-01T06:46:32;3.10;;;0.30;;
43803;SDS011;29430;52.924;-2.388;2023-08-01T06:51:23;2.08;;;0.40;;
43803;SDS011;29430;52.924;-2.388;2023-08-01T06:56:15;4.93;;;0.43;;
43803;SDS011;29430;52.924;-2.388;2023-08-01T07:01:07;2.78;;;0.40;;
43803;SDS011;29430;52.924;-2.388;2023-08-01T07:05:59;5.00;;;0.50;;
43803;SDS011;29430;52.924;-2.388;2023-08-01T07:10:50;1.60;;;0.30;;
43803;SDS011;29430;52.924;-2.388;2023-08-01T07:15:42;4.05;;;0.40;;
43803;SDS011;29430;52.924;-2.388;2023-08-01T07:20:34;3.28;;;0.30;;
43803;SDS011;29430;52.924;-2.388;2023-08-01T07:25:25;3.13;;;0.38;;
43803;SDS011;29430;52.924;-2.388;2023-08-01T07:30:17;4.82;;;0.30;;
43803;SDS011;29430;52.924;-2.388;2023-08-01T07:35:09;6.32;;;0.30;;
43803;SDS011;29430;52.924;-2.388;2023-08-01T07:40:01;3.40;;;0.40;;
43803;SDS011;29430;52.924;-2.388;2023-08-01T07:44:53;3.30;;;0.40;;
43803;SDS011;29430;52.924;-2.388;2023-08-01T07:49:45;4.25;;;0.40;;
43803;SDS011;29430;52.924;-2.388;2023-08-01T07:54:37;5.53;;;0.35;;
43803;SDS011;29430;52.924;-2.388;2023-08-01T07:59:28;3.67;;;0.38;;
43803;SDS011;29430;52.924;-2.388;2023-08-01T08:04:20;3.90;;;0.30;;
43803;SDS011;29430;52.924;-2.388;2023-08-01T08:09:12;3.80;;;0.38;;
43803;SDS011;29430;52.924;-2.388;2023-08-01T08:14:04;4.05;;;0.30;;
43803;SDS011;29430;52.924;-2.388;2023-08-01T08:18:55;4.53;;;0.40;;
43803;SDS011;29430;52.924;-2.388;2023-08-01T08:23:47;3.72;;;0.30;;
43803;SDS011;29430;52.924;-2.388;2023-08-01T08:28:39;3.10;;;0.30;;
43803;SDS011;29430;52.924;-2.388;2023-08-01T08:33:31;4.05;;;0.40;;
43803;SDS011;29430;52.924;-2.388;2023-08-01T08:38:23;3.47;;;0.35;;
43803;SDS011;29430;52.924;-2.388;2023-08-01T08:43:15;4.78;;;0.40;;
43803;SDS011;29430;52.924;-2.388;2023-08-01T08:48:12;4.93;;;0.35;;
43803;SDS011;29430;52.924;-2.388;2023-08-01T08:53:09;4.07;;;0.50;;
43803;SDS011;29430;52.924;-2.388;2023-08-01T08:58:04;1.30;;;0.30;;
43803;SDS011;29430;52.924;-2.388;2023-08-01T09:02:56;3.92;;;0.50;;
43803;SDS011;29430;52.924;-2.388;2023-08-01T09:07:48;2.53;;;0.30;;
43803;SDS011;29430;52.924;-2.388;2023-08-01T09:12:43;3.47;;;0.30;;
43803;SDS011;29430;52.924;-2.388;2023-08-01T09:17:35;1.67;;;0.30;;
43803;SDS011;29430;52.924;-2.388;2023-08-01T09:22:26;2.00;;;0.20;;
43803;SDS011;29430;52.924;-2.388;2023-08-01T09:27:20;2.88;;;0.30;;
43803;SDS011;29430;52.924;-2.388;2023-08-01T09:32:14;2.53;;;0.22;;
43803;SDS011;29430;52.924;-2.388;2023-08-01T09:37:05;2.17;;;0.20;;
43803;SDS011;29430;52.924;-2.388;2023-08-01T09:41:58;1.90;;;0.20;;
43803;SDS011;29430;52.924;-2.388;2023-08-01T09:51:52;1.42;;;0.20;;
43803;SDS011;29430;52.924;-2.388;2023-08-01T09:56:44;2.00;;;0.10;;
43803;SDS011;29430;52.924;-2.388;2023-08-01T10:01:38;2.05;;;0.20;;
43803;SDS011;29430;52.924;-2.388;2023-08-01T10:06:32;2.83;;;0.30;;
43803;SDS011;29430;52.924;-2.388;2023-08-01T10:11:25;2.20;;;0.20;;
43803;SDS011;29430;52.924;-2.388;2023-08-01T10:16:18;1.30;;;0.10;;
43803;SDS011;29430;52.924;-2.388;2023-08-01T10:21:13;1.58;;;0.20;;
43803;SDS011;29430;52.924;-2.388;2023-08-01T10:26:07;2.33;;;0.20;;
43803;SDS011;29430;52.924;-2.388;2023-08-01T10:36:16;1.27;;;0.15;;
43803;SDS011;29430;52.924;-2.388;2023-08-01T10:41:17;1.77;;;0.20;;
43803;SDS011;29430;52.924;-2.388;2023-08-01T10:46:19;3.03;;;0.20;;
43803;SDS011;29430;52.924;-2.388;2023-08-01T10:51:10;1.98;;;0.30;;
43803;SDS011;29430;52.924;-2.388;2023-08-01T10:56:02;2.65;;;0.20;;
43803;SDS011;29430;52.924;-2.388;2023-08-01T11:00:57;1.48;;;0.20;;
43803;SDS011;29430;52.924;-2.388;2023-08-01T11:05:57;1.75;;;0.30;;
43803;SDS011;29430;52.924;-2.388;2023-08-01T11:10:49;1.27;;;0.25;;
43803;SDS011;29430;52.924;-2.388;2023-08-01T11:15:41;1.60;;;0.25;;
43803;SDS011;29430;52.924;-2.388;2023-08-01T11:20:38;0.70;;;0.20;;
43803;SDS011;29430;52.924;-2.388;2023-08-01T11:25:36;2.30;;;0.25;;
43803;SDS011;29430;52.924;-2.388;2023-08-01T11:30:30;1.55;;;0.25;;
43803;SDS011;29430;52.924;-2.388;2023-08-01T11:35:24;2.10;;;0.20;;
43803;SDS011;29430;52.924;-2.388;2023-08-01T11:40:16;2.45;;;0.30;;
43803;SDS011;29430;52.924;-2.388;2023-08-01T11:45:09;0.82;;;0.20;;
43803;SDS011;29430;52.924;-2.388;2023-08-01T11:50:05;1.97;;;0.40;;
43803;SDS011;29430;52.924;-2.388;2023-08-01T11:54:58;2.63;;;0.30;;
43803;SDS011;29430;52.924;-2.388;2023-08-01T11:59:50;1.23;;;0.25;;
43803;SDS011;29430;52.924;-2.388;2023-08-01T12:04:45;6.80;;;0.30;;
43803;SDS011;29430;52.924;-2.388;2023-08-01T12:09:37;3.00;;;0.40;;
43803;SDS011;29430;52.924;-2.388;2023-08-01T12:14:29;3.30;;;0.30;;
43803;SDS011;29430;52.924;-2.388;2023-08-01T12:19:21;1.67;;;0.28;;
43803;SDS011;29430;52.924;-2.388;2023-08-01T12:24:12;1.33;;;0.20;;
43803;SDS011;29430;52.924;-2.388;2023-08-01T12:29:04;1.90;;;0.20;;
43803;SDS011;29430;52.924;-2.388;2023-08-01T12:33:56;1.88;;;0.28;;
43803;SDS011;29430;52.924;-2.388;2023-08-01T12:38:48;4.10;;;0.40;;
43803;SDS011;29430;52.924;-2.388;2023-08-01T12:43:40;0.82;;;0.20;;
43803;SDS011;29430;52.924;-2.388;2023-08-01T12:48:32;1.48;;;0.20;;
43803;SDS011;29430;52.924;-2.388;2023-08-01T12:53:24;1.38;;;0.20;;
43803;SDS011;29430;52.924;-2.388;2023-08-01T12:58:16;3.95;;;0.30;;
43803;SDS011;29430;52.924;-2.388;2023-08-01T13:03:08;1.90;;;0.20;;
43803;SDS011;29430;52.924;-2.388;2023-08-01T13:08:00;2.17;;;0.20;;
43803;SDS011;29430;52.924;-2.388;2023-08-01T13:12:52;2.13;;;0.20;;
43803;SDS011;29430;52.924;-2.388;2023-08-01T13:17:44;2.45;;;0.20;;
43803;SDS011;29430;52.924;-2.388;2023-08-01T13:22:36;1.88;;;0.30;;
43803;SDS011;29430;52.924;-2.388;2023-08-01T13:27:28;1.15;;;0.20;;
43803;SDS011;29430;52.924;-2.388;2023-08-01T13:32:20;2.20;;;0.20;;
43803;SDS011;29430;52.924;-2.388;2023-08-01T13:37:12;2.80;;;0.20;;
43803;SDS011;29430;52.924;-2.388;2023-08-01T13:42:04;1.85;;;0.30;;
43803;SDS011;29430;52.924;-2.388;2023-08-01T13:46:56;2.25;;;0.40;;
43803;SDS011;29430;52.924;-2.388;2023-08-01T13:51:48;1.83;;;0.20;;
43803;SDS011;29430;52.924;-2.388;2023-08-01T13:56:39;1.52;;;0.20;;
43803;SDS011;29430;52.924;-2.388;2023-08-01T14:01:31;2.47;;;0.25;;
43803;SDS011;29430;52.924;-2.388;2023-08-01T14:06:23;0.98;;;0.20;;
43803;SDS011;29430;52.924;-2.388;2023-08-01T14:11:15;2.88;;;0.20;;
43803;SDS011;29430;52.924;-2.388;2023-08-01T14:16:08;2.28;;;0.20;;
43803;SDS011;29430;52.924;-2.388;2023-08-01T14:21:00;1.23;;;0.20;;
43803;SDS011;29430;52.924;-2.388;2023-08-01T14:25:51;1.73;;;0.20;;
43803;SDS011;29430;52.924;-2.388;2023-08-01T14:30:43;0.68;;;0.20;;
43803;SDS011;29430;52.924;-2.388;2023-08-01T14:35:35;3.42;;;0.20;;
43803;SDS011;29430;52.924;-2.388;2023-08-01T14:40:27;2.05;;;0.30;;
43803;SDS011;29430;52.924;-2.388;2023-08-01T14:45:19;1.90;;;0.40;;
43803;SDS011;29430;52.924;-2.388;2023-08-01T14:50:11;1.92;;;0.20;;
43803;SDS011;29430;52.924;-2.388;2023-08-01T14:55:03;2.25;;;0.22;;
43803;SDS011;29430;52.924;-2.388;2023-08-01T14:59:56;1.73;;;0.30;;
43803;SDS011;29430;52.924;-2.388;2023-08-01T15:04:51;1.10;;;0.20;;
43803;SDS011;29430;52.924;-2.388;2023-08-01T15:09:44;2.77;;;0.30;;
43803;SDS011;29430;52.924;-2.388;2023-08-01T15:14:37;1.33;;;0.20;;
43803;SDS011;29430;52.924;-2.388;2023-08-01T15:19:29;1.45;;;0.17;;
43803;SDS011;29430;52.924;-2.388;2023-08-01T15:24:21;0.77;;;0.20;;
43803;SDS011;29430;52.924;-2.388;2023-08-01T15:29:13;1.33;;;0.30;;
43803;SDS011;29430;52.924;-2.388;2023-08-01T15:34:06;1.02;;;0.20;;
43803;SDS011;29430;52.924;-2.388;2023-08-01T15:38:59;0.57;;;0.10;;
43803;SDS011;29430;52.924;-2.388;2023-08-01T15:43:51;0.60;;;0.10;;
43803;SDS011;29430;52.924;-2.388;2023-08-01T15:48:43;2.35;;;0.30;;
43803;SDS011;29430;52.924;-2.388;2023-08-01T15:53:35;0.82;;;0.20;;
43803;SDS011;29430;52.924;-2.388;2023-08-01T15:58:27;2.85;;;0.20;;
43803;SDS011;29430;52.924;-2.388;2023-08-01T16:03:20;3.05;;;0.20;;
43803;SDS011;29430;52.924;-2.388;2023-08-01T16:08:12;2.95;;;0.22;;
43803;SDS011;29430;52.924;-2.388;2023-08-01T16:13:07;2.22;;;0.20;;
43803;SDS011;29430;52.924;-2.388;2023-08-01T16:18:00;1.83;;;0.30;;
43803;SDS011;29430;52.924;-2.388;2023-08-01T16:22:52;1.75;;;0.15;;
43803;SDS011;29430;52.924;-2.388;2023-08-01T16:27:44;1.83;;;0.20;;
43803;SDS011;29430;52.924;-2.388;2023-08-01T16:32:35;2.28;;;0.20;;
43803;SDS011;29430;52.924;-2.388;2023-08-01T16:37:28;0.77;;;0.10;;
43803;SDS011;29430;52.924;-2.388;2023-08-01T16:42:20;3.10;;;0.20;;
43803;SDS011;29430;52.924;-2.388;2023-08-01T16:47:12;1.33;;;0.20;;
43803;SDS011;29430;52.924;-2.388;2023-08-01T16:52:18;1.88;;;0.50;;
43803;SDS011;29430;52.924;-2.388;2023-08-01T16:57:09;0.50;;;0.00;;
43803;SDS011;29430;52.924;-2.388;2023-08-01T17:02:01;0.57;;;0.10;;
43803;SDS011;29430;52.924;-2.388;2023-08-01T17:06:53;0.95;;;0.13;;
43803;SDS011;29430;52.924;-2.388;2023-08-01T17:11:45;0.50;;;0.10;;
43803;SDS011;29430;52.924;-2.388;2023-08-01T17:16:36;2.15;;;0.20;;
43803;SDS011;29430;52.924;-2.388;2023-08-01T17:21:29;1.65;;;0.20;;
43803;SDS011;29430;52.924;-2.388;2023-08-01T17:26:20;1.60;;;0.10;;
43803;SDS011;29430;52.924;-2.388;2023-08-01T17:31:12;0.47;;;0.10;;
43803;SDS011;29430;52.924;-2.388;2023-08-01T17:36:04;2.17;;;0.10;;
43803;SDS011;29430;52.924;-2.388;2023-08-01T17:40:56;0.10;;;0.03;;
43803;SDS011;29430;52.924;-2.388;2023-08-01T17:45:48;0.75;;;0.10;;
43803;SDS011;29430;52.924;-2.388;2023-08-01T17:50:41;0.52;;;0.00;;
43803;SDS011;29430;52.924;-2.388;2023-08-01T17:55:34;0.50;;;0.10;;
43803;SDS011;29430;52.924;-2.388;2023-08-01T18:00:26;0.98;;;0.10;;
43803;SDS011;29430;52.924;-2.388;2023-08-01T18:05:18;0.40;;;0.03;;
43803;SDS011;29430;52.924;-2.388;2023-08-01T18:10:11;1.40;;;0.10;;
43803;SDS011;29430;52.924;-2.388;2023-08-01T18:15:03;1.67;;;0.10;;
43803;SDS011;29430;52.924;-2.388;2023-08-01T18:19:56;0.35;;;0.10;;
43803;SDS011;29430;52.924;-2.388;2023-08-01T18:24:48;0.50;;;0.10;;
43803;SDS011;29430;52.924;-2.388;2023-08-01T18:29:39;1.02;;;0.10;;
43803;SDS011;29430;52.924;-2.388;2023-08-01T18:34:33;3.17;;;0.10;;
43803;SDS011;29430;52.924;-2.388;2023-08-01T18:39:26;0.95;;;0.10;;
43803;SDS011;29430;52.924;-2.388;2023-08-01T18:44:18;0.90;;;0.08;;
43803;SDS011;29430;52.924;-2.388;2023-08-01T18:49:10;0.60;;;0.10;;
43803;SDS011;29430;52.924;-2.388;2023-08-01T18:54:02;0.77;;;0.10;;
43803;SDS011;29430;52.924;-2.388;2023-08-01T18:58:54;0.90;;;0.10;;
43803;SDS011;29430;52.924;-2.388;2023-08-01T19:03:46;1.02;;;0.10;;
43803;SDS011;29430;52.924;-2.388;2023-08-01T19:08:38;1.70;;;0.10;;
43803;SDS011;29430;52.924;-2.388;2023-08-01T19:13:30;1.15;;;0.10;;
43803;SDS011;29430;52.924;-2.388;2023-08-01T19:18:22;0.57;;;0.10;;
43803;SDS011;29430;52.924;-2.388;2023-08-01T19:23:14;1.98;;;0.10;;
43803;SDS011;29430;52.924;-2.388;2023-08-01T19:28:05;1.20;;;0.15;;
43803;SDS011;29430;52.924;-2.388;2023-08-01T19:32:57;1.60;;;0.30;;
43803;SDS011;29430;52.924;-2.388;2023-08-01T19:37:49;1.70;;;0.40;;
43803;SDS011;29430;52.924;-2.388;2023-08-01T19:42:41;1.63;;;0.40;;
43803;SDS011;29430;52.924;-2.388;2023-08-01T19:47:32;2.00;;;0.30;;
43803;SDS011;29430;52.924;-2.388;2023-08-01T19:52:24;3.00;;;0.50;;
43803;SDS011;29430;52.924;-2.388;2023-08-01T19:57:16;1.83;;;0.75;;
43803;SDS011;29430;52.924;-2.388;2023-08-01T20:02:08;3.03;;;0.70;;
43803;SDS011;29430;52.924;-2.388;2023-08-01T20:07:00;1.25;;;0.40;;
43803;SDS011;29430;52.924;-2.388;2023-08-01T20:11:54;1.20;;;0.20;;
43803;SDS011;29430;52.924;-2.388;2023-08-01T20:16:46;1.70;;;0.20;;
43803;SDS011;29430;52.924;-2.388;2023-08-01T20:21:37;0.57;;;0.20;;
43803;SDS011;29430;52.924;-2.388;2023-08-01T20:26:29;0.50;;;0.20;;
43803;SDS011;29430;52.924;-2.388;2023-08-01T20:31:21;1.40;;;0.20;;
43803;SDS011;29430;52.924;-2.388;2023-08-01T20:36:13;0.80;;;0.20;;
43803;SDS011;29430;52.924;-2.388;2023-08-01T20:41:11;0.73;;;0.20;;
43803;SDS011;29430;52.924;-2.388;2023-08-01T20:46:04;1.88;;;0.30;;
43803;SDS011;29430;52.924;-2.388;2023-08-01T20:50:55;2.22;;;0.35;;
43803;SDS011;29430;52.924;-2.388;2023-08-01T20:55:47;1.55;;;0.50;;
43803;SDS011;29430;52.924;-2.388;2023-08-01T21:00:39;1.88;;;0.57;;
43803;SDS011;29430;52.924;-2.388;2023-08-01T21:05:34;3.20;;;0.75;;
43803;SDS011;29430;52.924;-2.388;2023-08-01T21:10:28;3.38;;;1.48;;
43803;SDS011;29430;52.924;-2.388;2023-08-01T21:15:20;4.07;;;1.10;;
43803;SDS011;29430;52.924;-2.388;2023-08-01T21:20:14;3.55;;;0.88;;
43803;SDS011;29430;52.924;-2.388;2023-08-01T21:25:08;3.58;;;0.90;;
43803;SDS011;29430;52.924;-2.388;2023-08-01T21:30:00;2.55;;;0.50;;
43803;SDS011;29430;52.924;-2.388;2023-08-01T21:34:51;1.23;;;0.40;;
43803;SDS011;29430;52.924;-2.388;2023-08-01T21:39:46;0.90;;;0.20;;
43803;SDS011;29430;52.924;-2.388;2023-08-01T21:44:38;2.47;;;0.20;;
43803;SDS011;29430;52.924;-2.388;2023-08-01T21:49:30;2.95;;;0.32;;
43803;SDS011;29430;52.924;-2.388;2023-08-01T21:54:21;0.73;;;0.20;;
43803;SDS011;29430;52.924;-2.388;2023-08-01T21:59:13;1.38;;;0.20;;
43803;SDS011;29430;52.924;-2.388;2023-08-01T22:04:06;1.27;;;0.22;;
43803;SDS011;29430;52.924;-2.388;2023-08-01T22:08:58;2.83;;;0.25;;
43803;SDS011;29430;52.924;-2.388;2023-08-01T22:13:50;1.65;;;0.20;;
43803;SDS011;29430;52.924;-2.388;2023-08-01T22:18:41;1.52;;;0.20;;
43803;SDS011;29430;52.924;-2.388;2023-08-01T22:23:33;1.08;;;0.20;;
43803;SDS011;29430;52.924;-2.388;2023-08-01T22:28:28;1.50;;;0.30;;
43803;SDS011;29430;52.924;-2.388;2023-08-01T22:33:21;2.05;;;0.30;;
43803;SDS011;29430;52.924;-2.388;2023-08-01T22:38:12;1.00;;;0.15;;
43803;SDS011;29430;52.924;-2.388;2023-08-01T22:43:05;2.17;;;0.30;;
43803;SDS011;29430;52.924;-2.388;2023-08-01T22:47:56;1.40;;;0.30;;
43803;SDS011;29430;52.924;-2.388;2023-08-01T22:52:49;2.35;;;0.30;;
43803;SDS011;29430;52.924;-2.388;2023-08-01T22:57:41;2.55;;;0.35;;
43803;SDS011;29430;52.924;-2.388;2023-08-01T23:02:32;2.35;;;0.30;;
43803;SDS011;29430;52.924;-2.388;2023-08-01T23:07:24;1.15;;;0.30;;
43803;SDS011;29430;52.924;-2.388;2023-08-01T23:12:16;1.13;;;0.20;;
43803;SDS011;29430;52.924;-2.388;2023-08-01T23:17:08;2.55;;;0.30;;
43803;SDS011;29430;52.924;-2.388;2023-08-01T23:22:01;2.22;;;0.47;;
43803;SDS011;29430;52.924;-2.388;2023-08-01T23:26:53;2.35;;;0.40;;
43803;SDS011;29430;52.924;-2.388;2023-08-01T23:31:44;3.28;;;0.30;;
43803;SDS011;29430;52.924;-2.388;2023-08-01T23:36:36;1.42;;;0.43;;
43803;SDS011;29430;52.924;-2.388;2023-08-01T23:41:28;2.92;;;0.40;;
43803;SDS011;29430;52.924;-2.388;2023-08-01T23:46:22;4.85;;;0.50;;
43803;SDS011;29430;52.924;-2.388;2023-08-01T23:51:18;3.78;;;0.50;;
43803;SDS011;29430;52.924;-2.388;2023-08-01T23:56:10;2.95;;;0.40;;
